sensor_id;sensor_type;location;lat;lon;timestamp;temperature;humidity
4564;DHT22;2294;51.818;8.484;2023-03-05T00:01:39;5.30;99.90
4564;DHT22;2294;51.818;8.484;2023-03-05T00:04:10;5.30;99.90
4564;DHT22;2294;51.818;8.484;2023-03-05T00:06:38;5.30;99.90
4564;DHT22;2294;51.818;8.484;2023-03-05T00:09:05;5.30;99.90
4564;DHT22;2294;51.818;8.484;2023-03-05T00:11:32;5.30;99.90
4564;DHT22;2294;51.818;8.484;2023-03-05T00:14:01;5.40;99.90
4564;DHT22;2294;51.818;8.484;2023-03-05T00:16:29;5.20;99.90
4564;DHT22;2294;51.818;8.484;2023-03-05T00:18:57;5.30;99.90
4564;DHT22;2294;51.818;8.484;2023-03-05T00:21:27;5.10;99.90
4564;DHT22;2294;51.818;8.484;2023-03-05T00:23:55;5.20;99.90
4564;DHT22;2294;51.818;8.484;2023-03-05T00:26:24;5.20;99.90
4564;DHT22;2294;51.818;8.484;2023-03-05T00:28:51;5.20;99.90
4564;DHT22;2294;51.818;8.484;2023-03-05T00:31:20;5.20;99.90
4564;DHT22;2294;51.818;8.484;2023-03-05T00:33:50;5.20;99.90
4564;DHT22;2294;51.818;8.484;2023-03-05T00:36:17;5.10;99.90
4564;DHT22;2294;51.818;8.484;2023-03-05T00:38:46;5.20;99.90
4564;DHT22;2294;51.818;8.484;2023-03-05T00:41:13;5.20;99.90
4564;DHT22;2294;51.818;8.484;2023-03-05T00:43:40;5.10;99.90
4564;DHT22;2294;51.818;8.484;2023-03-05T00:46:07;5.10;99.90
4564;DHT22;2294;51.818;8.484;2023-03-05T00:48:34;5.20;99.90
4564;DHT22;2294;51.818;8.484;2023-03-05T00:51:01;5.10;99.90
4564;DHT22;2294;51.818;8.484;2023-03-05T00:53:28;5.20;99.90
4564;DHT22;2294;51.818;8.484;2023-03-05T00:55:57;5.10;99.90
4564;DHT22;2294;51.818;8.484;2023-03-05T00:58:24;5.10;99.90
4564;DHT22;2294;51.818;8.484;2023-03-05T01:00:51;5.10;99.90
4564;DHT22;2294;51.818;8.484;2023-03-05T01:03:18;5.10;99.90
4564;DHT22;2294;51.818;8.484;2023-03-05T01:05:45;5.20;99.90
4564;DHT22;2294;51.818;8.484;2023-03-05T01:08:12;5.10;99.90
4564;DHT22;2294;51.818;8.484;2023-03-05T01:10:39;5.20;99.90
4564;DHT22;2294;51.818;8.484;2023-03-05T01:13:08;5.10;99.90
4564;DHT22;2294;51.818;8.484;2023-03-05T01:15:35;5.10;99.90
4564;DHT22;2294;51.818;8.484;2023-03-05T01:18:02;5.10;99.90
4564;DHT22;2294;51.818;8.484;2023-03-05T01:20:29;5.20;99.90
4564;DHT22;2294;51.818;8.484;2023-03-05T01:22:55;5.20;99.90
4564;DHT22;2294;51.818;8.484;2023-03-05T01:25:24;5.20;99.90
4564;DHT22;2294;51.818;8.484;2023-03-05T01:27:51;5.10;99.90
4564;DHT22;2294;51.818;8.484;2023-03-05T01:30:19;5.20;99.90
4564;DHT22;2294;51.818;8.484;2023-03-05T01:32:46;5.30;99.90
4564;DHT22;2294;51.818;8.484;2023-03-05T01:35:17;5.30;99.90
4564;DHT22;2294;51.818;8.484;2023-03-05T01:37:44;5.30;99.90
4564;DHT22;2294;51.818;8.484;2023-03-05T01:40:14;5.30;99.90
4564;DHT22;2294;51.818;8.484;2023-03-05T01:42:44;5.30;99.90
4564;DHT22;2294;51.818;8.484;2023-03-05T01:45:14;5.40;99.90
4564;DHT22;2294;51.818;8.484;2023-03-05T01:47:43;5.50;99.90
4564;DHT22;2294;51.818;8.484;2023-03-05T01:50:16;5.30;99.90
4564;DHT22;2294;51.818;8.484;2023-03-05T01:52:48;5.30;99.90
4564;DHT22;2294;51.818;8.484;2023-03-05T01:55:18;5.40;99.90
4564;DHT22;2294;51.818;8.484;2023-03-05T01:57:49;5.40;99.90
4564;DHT22;2294;51.818;8.484;2023-03-05T02:00:19;5.40;99.90
4564;DHT22;2294;51.818;8.484;2023-03-05T02:02:50;5.50;99.90
4564;DHT22;2294;51.818;8.484;2023-03-05T02:05:19;5.50;99.90
4564;DHT22;2294;51.818;8.484;2023-03-05T02:07:52;5.50;99.90
4564;DHT22;2294;51.818;8.484;2023-03-05T02:10:21;5.50;99.90
4564;DHT22;2294;51.818;8.484;2023-03-05T02:12:49;5.40;99.90
4564;DHT22;2294;51.818;8.484;2023-03-05T02:15:17;5.50;99.90
4564;DHT22;2294;51.818;8.484;2023-03-05T02:17:44;5.60;99.90
4564;DHT22;2294;51.818;8.484;2023-03-05T02:20:15;5.70;99.90
4564;DHT22;2294;51.818;8.484;2023-03-05T02:22:44;5.70;99.90
4564;DHT22;2294;51.818;8.484;2023-03-05T02:25:16;5.70;99.90
4564;DHT22;2294;51.818;8.484;2023-03-05T02:27:49;5.70;99.90
4564;DHT22;2294;51.818;8.484;2023-03-05T02:30:17;5.60;99.90
4564;DHT22;2294;51.818;8.484;2023-03-05T02:32:44;5.50;99.90
4564;DHT22;2294;51.818;8.484;2023-03-05T02:35:11;5.60;99.90
4564;DHT22;2294;51.818;8.484;2023-03-05T02:37:38;5.70;99.90
4564;DHT22;2294;51.818;8.484;2023-03-05T02:40:08;5.70;99.90
4564;DHT22;2294;51.818;8.484;2023-03-05T02:42:35;5.60;99.90
4564;DHT22;2294;51.818;8.484;2023-03-05T02:45:04;5.70;99.90
4564;DHT22;2294;51.818;8.484;2023-03-05T02:47:31;5.70;99.90
4564;DHT22;2294;51.818;8.484;2023-03-05T02:49:58;5.70;99.90
4564;DHT22;2294;51.818;8.484;2023-03-05T02:52:25;5.60;99.90
4564;DHT22;2294;51.818;8.484;2023-03-05T02:54:53;5.70;99.90
4564;DHT22;2294;51.818;8.484;2023-03-05T02:57:21;5.70;99.90
4564;DHT22;2294;51.818;8.484;2023-03-05T02:59:48;5.70;99.90
4564;DHT22;2294;51.818;8.484;2023-03-05T03:02:15;5.70;99.90
4564;DHT22;2294;51.818;8.484;2023-03-05T03:04:42;5.70;99.90
4564;DHT22;2294;51.818;8.484;2023-03-05T03:07:09;5.70;99.90
4564;DHT22;2294;51.818;8.484;2023-03-05T03:09:36;5.70;99.90
4564;DHT22;2294;51.818;8.484;2023-03-05T03:12:04;5.80;99.90
4564;DHT22;2294;51.818;8.484;2023-03-05T03:14:35;5.60;99.90
4564;DHT22;2294;51.818;8.484;2023-03-05T03:17:04;5.80;99.90
4564;DHT22;2294;51.818;8.484;2023-03-05T03:19:31;5.80;99.90
4564;DHT22;2294;51.818;8.484;2023-03-05T03:21:58;5.80;99.90
4564;DHT22;2294;51.818;8.484;2023-03-05T03:24:25;5.70;99.90
4564;DHT22;2294;51.818;8.484;2023-03-05T03:26:52;5.80;99.90
4564;DHT22;2294;51.818;8.484;2023-03-05T03:29:19;5.80;99.90
4564;DHT22;2294;51.818;8.484;2023-03-05T03:31:47;5.90;99.90
4564;DHT22;2294;51.818;8.484;2023-03-05T03:34:15;5.80;99.90
4564;DHT22;2294;51.818;8.484;2023-03-05T03:36:42;5.90;99.90
4564;DHT22;2294;51.818;8.484;2023-03-05T03:39:09;5.90;99.90
4564;DHT22;2294;51.818;8.484;2023-03-05T03:41:39;5.80;99.90
4564;DHT22;2294;51.818;8.484;2023-03-05T03:44:07;5.90;99.90
4564;DHT22;2294;51.818;8.484;2023-03-05T03:46:35;5.90;99.90
4564;DHT22;2294;51.818;8.484;2023-03-05T03:49:04;5.90;99.90
4564;DHT22;2294;51.818;8.484;2023-03-05T03:51:33;5.90;99.90
4564;DHT22;2294;51.818;8.484;2023-03-05T03:53:59;5.90;99.90
4564;DHT22;2294;51.818;8.484;2023-03-05T03:56:26;5.80;99.90
4564;DHT22;2294;51.818;8.484;2023-03-05T03:58:53;5.90;99.90
4564;DHT22;2294;51.818;8.484;2023-03-05T04:01:20;5.90;99.90
4564;DHT22;2294;51.818;8.484;2023-03-05T04:03:47;5.90;99.90
4564;DHT22;2294;51.818;8.484;2023-03-05T04:06:16;5.90;99.90
4564;DHT22;2294;51.818;8.484;2023-03-05T04:08:42;5.80;99.90
4564;DHT22;2294;51.818;8.484;2023-03-05T04:11:09;6.00;99.90
4564;DHT22;2294;51.818;8.484;2023-03-05T04:13:36;6.00;99.90
4564;DHT22;2294;51.818;8.484;2023-03-05T04:16:03;6.10;99.90
4564;DHT22;2294;51.818;8.484;2023-03-05T04:18:30;6.00;99.90
4564;DHT22;2294;51.818;8.484;2023-03-05T04:20:57;6.00;99.90
4564;DHT22;2294;51.818;8.484;2023-03-05T04:23:25;5.90;99.90
4564;DHT22;2294;51.818;8.484;2023-03-05T04:25:52;6.00;99.90
4564;DHT22;2294;51.818;8.484;2023-03-05T04:28:19;6.00;99.90
4564;DHT22;2294;51.818;8.484;2023-03-05T04:30:46;6.00;99.90
4564;DHT22;2294;51.818;8.484;2023-03-05T04:33:13;6.00;99.90
4564;DHT22;2294;51.818;8.484;2023-03-05T04:35:40;6.00;99.90
4564;DHT22;2294;51.818;8.484;2023-03-05T04:38:07;6.10;99.90
4564;DHT22;2294;51.818;8.484;2023-03-05T04:40:35;6.10;99.90
4564;DHT22;2294;51.818;8.484;2023-03-05T04:43:03;6.20;99.90
4564;DHT22;2294;51.818;8.484;2023-03-05T04:45:30;6.30;99.90
4564;DHT22;2294;51.818;8.484;2023-03-05T04:47:57;6.10;99.90
4564;DHT22;2294;51.818;8.484;2023-03-05T04:50:24;6.10;99.90
4564;DHT22;2294;51.818;8.484;2023-03-05T04:52:51;6.10;99.90
4564;DHT22;2294;51.818;8.484;2023-03-05T04:55:18;6.20;99.90
4564;DHT22;2294;51.818;8.484;2023-03-05T04:57:46;6.20;99.90
4564;DHT22;2294;51.818;8.484;2023-03-05T05:00:15;6.20;99.90
4564;DHT22;2294;51.818;8.484;2023-03-05T05:02:44;6.20;99.90
4564;DHT22;2294;51.818;8.484;2023-03-05T05:05:13;6.20;99.90
4564;DHT22;2294;51.818;8.484;2023-03-05T05:07:40;6.10;99.90
4564;DHT22;2294;51.818;8.484;2023-03-05T05:10:09;6.00;99.90
4564;DHT22;2294;51.818;8.484;2023-03-05T05:12:36;6.10;99.90
4564;DHT22;2294;51.818;8.484;2023-03-05T05:15:06;6.10;99.90
4564;DHT22;2294;51.818;8.484;2023-03-05T05:17:34;6.10;99.90
4564;DHT22;2294;51.818;8.484;2023-03-05T05:20:02;6.10;99.90
4564;DHT22;2294;51.818;8.484;2023-03-05T05:22:31;6.00;99.90
4564;DHT22;2294;51.818;8.484;2023-03-05T05:24:58;6.10;99.90
4564;DHT22;2294;51.818;8.484;2023-03-05T05:27:25;6.10;99.90
4564;DHT22;2294;51.818;8.484;2023-03-05T05:29:52;6.20;99.90
4564;DHT22;2294;51.818;8.484;2023-03-05T05:32:21;6.20;99.90
4564;DHT22;2294;51.818;8.484;2023-03-05T05:34:52;6.20;99.90
4564;DHT22;2294;51.818;8.484;2023-03-05T05:37:19;6.30;99.90
4564;DHT22;2294;51.818;8.484;2023-03-05T05:39:46;6.20;99.90
4564;DHT22;2294;51.818;8.484;2023-03-05T05:42:15;6.20;99.90
4564;DHT22;2294;51.818;8.484;2023-03-05T05:44:41;6.30;99.90
4564;DHT22;2294;51.818;8.484;2023-03-05T05:47:08;6.30;99.90
4564;DHT22;2294;51.818;8.484;2023-03-05T05:49:37;6.40;99.90
4564;DHT22;2294;51.818;8.484;2023-03-05T05:52:04;6.40;99.90
4564;DHT22;2294;51.818;8.484;2023-03-05T05:54:31;6.30;99.90
4564;DHT22;2294;51.818;8.484;2023-03-05T05:56:58;6.40;99.90
4564;DHT22;2294;51.818;8.484;2023-03-05T05:59:25;6.40;99.90
4564;DHT22;2294;51.818;8.484;2023-03-05T06:01:52;6.50;99.90
4564;DHT22;2294;51.818;8.484;2023-03-05T06:04:19;6.40;99.90
4564;DHT22;2294;51.818;8.484;2023-03-05T06:06:47;6.50;99.90
4564;DHT22;2294;51.818;8.484;2023-03-05T06:09:14;6.50;99.90
4564;DHT22;2294;51.818;8.484;2023-03-05T06:11:41;6.50;99.90
4564;DHT22;2294;51.818;8.484;2023-03-05T06:14:09;6.50;99.90
4564;DHT22;2294;51.818;8.484;2023-03-05T06:16:36;6.50;99.90
4564;DHT22;2294;51.818;8.484;2023-03-05T06:19:03;6.40;99.90
4564;DHT22;2294;51.818;8.484;2023-03-05T06:21:30;6.40;99.90
4564;DHT22;2294;51.818;8.484;2023-03-05T06:23:59;6.40;99.90
4564;DHT22;2294;51.818;8.484;2023-03-05T06:26:26;6.40;99.90
4564;DHT22;2294;51.818;8.484;2023-03-05T06:28:53;6.40;99.90
4564;DHT22;2294;51.818;8.484;2023-03-05T06:31:21;6.40;99.90
4564;DHT22;2294;51.818;8.484;2023-03-05T06:33:50;6.50;99.90
4564;DHT22;2294;51.818;8.484;2023-03-05T06:36:18;6.50;99.90
4564;DHT22;2294;51.818;8.484;2023-03-05T06:38:46;6.50;99.90
4564;DHT22;2294;51.818;8.484;2023-03-05T06:41:16;6.50;99.90
4564;DHT22;2294;51.818;8.484;2023-03-05T06:43:45;6.70;99.90
4564;DHT22;2294;51.818;8.484;2023-03-05T06:46:14;6.90;99.90
4564;DHT22;2294;51.818;8.484;2023-03-05T06:48:41;6.90;99.90
4564;DHT22;2294;51.818;8.484;2023-03-05T06:51:12;6.90;99.90
4564;DHT22;2294;51.818;8.484;2023-03-05T06:53:39;6.90;99.90
4564;DHT22;2294;51.818;8.484;2023-03-05T06:56:06;7.00;99.90
4564;DHT22;2294;51.818;8.484;2023-03-05T06:58:35;7.10;99.90
4564;DHT22;2294;51.818;8.484;2023-03-05T07:01:04;7.20;99.90
4564;DHT22;2294;51.818;8.484;2023-03-05T07:03:32;7.20;99.90
4564;DHT22;2294;51.818;8.484;2023-03-05T07:06:02;7.30;99.90
4564;DHT22;2294;51.818;8.484;2023-03-05T07:08:29;7.40;99.90
4564;DHT22;2294;51.818;8.484;2023-03-05T07:10:56;7.30;99.90
4564;DHT22;2294;51.818;8.484;2023-03-05T07:13:23;7.50;99.90
4564;DHT22;2294;51.818;8.484;2023-03-05T07:15:52;7.40;99.90
4564;DHT22;2294;51.818;8.484;2023-03-05T07:18:19;7.50;99.90
4564;DHT22;2294;51.818;8.484;2023-03-05T07:20:46;7.40;99.90
4564;DHT22;2294;51.818;8.484;2023-03-05T07:23:13;7.50;99.90
4564;DHT22;2294;51.818;8.484;2023-03-05T07:25:40;7.50;99.90
4564;DHT22;2294;51.818;8.484;2023-03-05T07:28:07;7.40;99.90
4564;DHT22;2294;51.818;8.484;2023-03-05T07:30:35;7.40;99.90
4564;DHT22;2294;51.818;8.484;2023-03-05T07:33:03;7.60;99.90
4564;DHT22;2294;51.818;8.484;2023-03-05T07:35:30;7.60;99.90
4564;DHT22;2294;51.818;8.484;2023-03-05T07:37:57;7.60;99.90
4564;DHT22;2294;51.818;8.484;2023-03-05T07:40:24;7.60;99.90
4564;DHT22;2294;51.818;8.484;2023-03-05T07:42:50;7.50;99.90
4564;DHT22;2294;51.818;8.484;2023-03-05T07:45:19;7.40;99.90
4564;DHT22;2294;51.818;8.484;2023-03-05T07:47:45;7.40;99.90
4564;DHT22;2294;51.818;8.484;2023-03-05T07:50:14;7.50;99.90
4564;DHT22;2294;51.818;8.484;2023-03-05T07:52:41;7.60;99.90
4564;DHT22;2294;51.818;8.484;2023-03-05T07:55:08;7.70;99.90
4564;DHT22;2294;51.818;8.484;2023-03-05T07:57:35;7.50;99.90
4564;DHT22;2294;51.818;8.484;2023-03-05T08:00:04;7.70;99.90
4564;DHT22;2294;51.818;8.484;2023-03-05T08:02:31;7.90;99.90
4564;DHT22;2294;51.818;8.484;2023-03-05T08:04:58;7.90;99.90
4564;DHT22;2294;51.818;8.484;2023-03-05T08:07:26;7.70;99.90
4564;DHT22;2294;51.818;8.484;2023-03-05T08:09:54;7.60;99.90
4564;DHT22;2294;51.818;8.484;2023-03-05T08:12:21;7.80;99.90
4564;DHT22;2294;51.818;8.484;2023-03-05T08:14:48;7.80;99.90
4564;DHT22;2294;51.818;8.484;2023-03-05T08:17:16;7.90;99.90
4564;DHT22;2294;51.818;8.484;2023-03-05T08:19:43;7.90;99.90
4564;DHT22;2294;51.818;8.484;2023-03-05T08:22:10;7.90;99.90
4564;DHT22;2294;51.818;8.484;2023-03-05T08:24:39;7.40;99.90
4564;DHT22;2294;51.818;8.484;2023-03-05T08:27:06;7.40;99.90
4564;DHT22;2294;51.818;8.484;2023-03-05T08:29:33;7.90;99.90
4564;DHT22;2294;51.818;8.484;2023-03-05T08:32:00;8.00;99.90
4564;DHT22;2294;51.818;8.484;2023-03-05T08:34:27;7.70;99.90
4564;DHT22;2294;51.818;8.484;2023-03-05T08:36:54;7.10;99.90
4564;DHT22;2294;51.818;8.484;2023-03-05T08:39:21;7.70;99.90
4564;DHT22;2294;51.818;8.484;2023-03-05T08:41:50;7.70;99.90
4564;DHT22;2294;51.818;8.484;2023-03-05T08:44:17;7.60;99.90
4564;DHT22;2294;51.818;8.484;2023-03-05T08:46:44;7.20;99.90
4564;DHT22;2294;51.818;8.484;2023-03-05T08:49:10;7.00;99.90
4564;DHT22;2294;51.818;8.484;2023-03-05T08:51:37;6.90;99.90
4564;DHT22;2294;51.818;8.484;2023-03-05T08:54:04;7.00;99.90
4564;DHT22;2294;51.818;8.484;2023-03-05T08:56:33;7.30;99.90
4564;DHT22;2294;51.818;8.484;2023-03-05T08:59:02;7.30;99.90
4564;DHT22;2294;51.818;8.484;2023-03-05T09:01:30;7.10;99.90
4564;DHT22;2294;51.818;8.484;2023-03-05T09:03:57;7.10;99.90
4564;DHT22;2294;51.818;8.484;2023-03-05T09:06:25;7.20;99.90
4564;DHT22;2294;51.818;8.484;2023-03-05T09:08:52;7.30;99.90
4564;DHT22;2294;51.818;8.484;2023-03-05T09:11:19;7.20;99.90
4564;DHT22;2294;51.818;8.484;2023-03-05T09:13:46;7.20;99.90
4564;DHT22;2294;51.818;8.484;2023-03-05T09:16:16;7.10;99.90
4564;DHT22;2294;51.818;8.484;2023-03-05T09:18:44;7.00;99.90
4564;DHT22;2294;51.818;8.484;2023-03-05T09:21:12;7.20;99.90
4564;DHT22;2294;51.818;8.484;2023-03-05T09:23:40;7.60;99.90
4564;DHT22;2294;51.818;8.484;2023-03-05T09:26:10;7.50;99.90
4564;DHT22;2294;51.818;8.484;2023-03-05T09:28:38;7.10;99.90
4564;DHT22;2294;51.818;8.484;2023-03-05T09:31:06;7.20;99.90
4564;DHT22;2294;51.818;8.484;2023-03-05T09:33:35;7.20;99.90
4564;DHT22;2294;51.818;8.484;2023-03-05T09:36:03;6.70;99.90
4564;DHT22;2294;51.818;8.484;2023-03-05T09:38:31;6.60;99.90
4564;DHT22;2294;51.818;8.484;2023-03-05T09:41:00;6.80;99.90
4564;DHT22;2294;51.818;8.484;2023-03-05T09:43:38;7.00;99.90
4564;DHT22;2294;51.818;8.484;2023-03-05T09:46:17;7.20;99.90
4564;DHT22;2294;51.818;8.484;2023-03-05T09:48:51;7.20;99.90
4564;DHT22;2294;51.818;8.484;2023-03-05T09:51:24;6.90;99.90
4564;DHT22;2294;51.818;8.484;2023-03-05T09:53:58;6.90;99.90
4564;DHT22;2294;51.818;8.484;2023-03-05T09:56:28;6.80;99.90
4564;DHT22;2294;51.818;8.484;2023-03-05T09:59:00;6.90;99.90
4564;DHT22;2294;51.818;8.484;2023-03-05T10:01:33;8.00;99.90
4564;DHT22;2294;51.818;8.484;2023-03-05T10:04:09;6.70;99.90
4564;DHT22;2294;51.818;8.484;2023-03-05T10:06:42;6.70;99.90
4564;DHT22;2294;51.818;8.484;2023-03-05T10:09:15;6.50;99.90
4564;DHT22;2294;51.818;8.484;2023-03-05T10:11:50;6.60;99.90
4564;DHT22;2294;51.818;8.484;2023-03-05T10:14:25;7.00;99.90
4564;DHT22;2294;51.818;8.484;2023-03-05T10:17:05;7.10;99.90
4564;DHT22;2294;51.818;8.484;2023-03-05T10:19:52;7.20;99.90
4564;DHT22;2294;51.818;8.484;2023-03-05T10:22:23;6.80;99.90
4564;DHT22;2294;51.818;8.484;2023-03-05T10:25:02;6.90;99.90
4564;DHT22;2294;51.818;8.484;2023-03-05T10:27:42;6.90;99.90
4564;DHT22;2294;51.818;8.484;2023-03-05T10:30:27;6.70;99.90
4564;DHT22;2294;51.818;8.484;2023-03-05T10:33:04;6.60;99.90
4564;DHT22;2294;51.818;8.484;2023-03-05T10:38:55;6.90;99.90
4564;DHT22;2294;51.818;8.484;2023-03-05T10:41:34;6.70;99.90
4564;DHT22;2294;51.818;8.484;2023-03-05T10:44:09;6.80;99.90
4564;DHT22;2294;51.818;8.484;2023-03-05T10:46:39;6.90;99.90
4564;DHT22;2294;51.818;8.484;2023-03-05T10:49:14;6.70;99.90
4564;DHT22;2294;51.818;8.484;2023-03-05T10:51:49;6.90;99.90
4564;DHT22;2294;51.818;8.484;2023-03-05T10:54:23;7.20;99.90
4564;DHT22;2294;51.818;8.484;2023-03-05T10:57:02;7.10;99.90
4564;DHT22;2294;51.818;8.484;2023-03-05T10:59:29;6.30;99.90
4564;DHT22;2294;51.818;8.484;2023-03-05T11:02:03;6.30;99.90
4564;DHT22;2294;51.818;8.484;2023-03-05T11:04:33;6.30;99.90
4564;DHT22;2294;51.818;8.484;2023-03-05T11:07:05;5.90;99.90
4564;DHT22;2294;51.818;8.484;2023-03-05T11:09:32;5.80;99.90
4564;DHT22;2294;51.818;8.484;2023-03-05T11:12:13;5.90;99.90
4564;DHT22;2294;51.818;8.484;2023-03-05T11:14:43;5.90;99.90
4564;DHT22;2294;51.818;8.484;2023-03-05T11:17:28;5.50;99.90
4564;DHT22;2294;51.818;8.484;2023-03-05T11:19:55;5.80;99.90
4564;DHT22;2294;51.818;8.484;2023-03-05T11:22:24;5.80;99.90
4564;DHT22;2294;51.818;8.484;2023-03-05T11:25:13;6.20;99.90
4564;DHT22;2294;51.818;8.484;2023-03-05T11:27:47;7.00;99.90
4564;DHT22;2294;51.818;8.484;2023-03-05T11:30:18;7.50;99.90
4564;DHT22;2294;51.818;8.484;2023-03-05T11:32:46;7.60;99.90
4564;DHT22;2294;51.818;8.484;2023-03-05T11:35:28;8.00;99.90
4564;DHT22;2294;51.818;8.484;2023-03-05T11:38:01;7.60;99.90
4564;DHT22;2294;51.818;8.484;2023-03-05T11:40:29;7.50;99.90
4564;DHT22;2294;51.818;8.484;2023-03-05T11:42:58;7.00;99.90
4564;DHT22;2294;51.818;8.484;2023-03-05T11:45:28;7.40;99.90
4564;DHT22;2294;51.818;8.484;2023-03-05T11:47:59;7.20;99.90
4564;DHT22;2294;51.818;8.484;2023-03-05T11:50:30;7.60;99.90
4564;DHT22;2294;51.818;8.484;2023-03-05T11:53:01;7.20;99.90
4564;DHT22;2294;51.818;8.484;2023-03-05T11:55:33;7.10;99.90
4564;DHT22;2294;51.818;8.484;2023-03-05T11:58:14;7.20;99.90
4564;DHT22;2294;51.818;8.484;2023-03-05T12:00:44;7.30;99.90
4564;DHT22;2294;51.818;8.484;2023-03-05T12:03:14;7.00;99.90
4564;DHT22;2294;51.818;8.484;2023-03-05T12:05:44;6.50;99.90
4564;DHT22;2294;51.818;8.484;2023-03-05T12:08:17;6.60;99.90
4564;DHT22;2294;51.818;8.484;2023-03-05T12:10:46;6.90;99.90
4564;DHT22;2294;51.818;8.484;2023-03-05T12:13:18;6.90;99.90
4564;DHT22;2294;51.818;8.484;2023-03-05T12:15:56;6.80;99.90
4564;DHT22;2294;51.818;8.484;2023-03-05T12:18:34;6.60;99.90
4564;DHT22;2294;51.818;8.484;2023-03-05T12:21:06;6.30;99.90
4564;DHT22;2294;51.818;8.484;2023-03-05T12:23:49;6.50;99.90
4564;DHT22;2294;51.818;8.484;2023-03-05T12:26:17;6.40;99.90
4564;DHT22;2294;51.818;8.484;2023-03-05T12:28:55;6.60;99.90
4564;DHT22;2294;51.818;8.484;2023-03-05T12:31:33;6.20;99.90
4564;DHT22;2294;51.818;8.484;2023-03-05T12:40:23;6.60;99.90
4564;DHT22;2294;51.818;8.484;2023-03-05T12:42:53;6.90;99.90
4564;DHT22;2294;51.818;8.484;2023-03-05T12:45:34;7.10;99.90
4564;DHT22;2294;51.818;8.484;2023-03-05T12:51:12;7.50;99.90
4564;DHT22;2294;51.818;8.484;2023-03-05T12:53:39;7.70;99.90
4564;DHT22;2294;51.818;8.484;2023-03-05T12:56:17;7.70;99.90
4564;DHT22;2294;51.818;8.484;2023-03-05T12:58:46;8.00;99.90
4564;DHT22;2294;51.818;8.484;2023-03-05T13:01:29;8.00;99.90
4564;DHT22;2294;51.818;8.484;2023-03-05T13:04:00;8.20;99.90
4564;DHT22;2294;51.818;8.484;2023-03-05T13:06:30;8.00;99.90
4564;DHT22;2294;51.818;8.484;2023-03-05T13:08:59;7.60;99.90
4564;DHT22;2294;51.818;8.484;2023-03-05T13:11:30;7.60;99.90
4564;DHT22;2294;51.818;8.484;2023-03-05T13:14:00;7.40;99.90
4564;DHT22;2294;51.818;8.484;2023-03-05T13:16:28;7.30;99.90
4564;DHT22;2294;51.818;8.484;2023-03-05T13:18:58;7.00;99.90
4564;DHT22;2294;51.818;8.484;2023-03-05T13:21:27;6.90;99.90
4564;DHT22;2294;51.818;8.484;2023-03-05T13:23:56;6.90;99.90
4564;DHT22;2294;51.818;8.484;2023-03-05T13:26:25;6.70;99.90
4564;DHT22;2294;51.818;8.484;2023-03-05T13:29:05;6.90;99.90
4564;DHT22;2294;51.818;8.484;2023-03-05T13:31:34;6.90;99.90
4564;DHT22;2294;51.818;8.484;2023-03-05T13:34:09;6.70;99.90
4564;DHT22;2294;51.818;8.484;2023-03-05T13:36:37;6.70;99.90
4564;DHT22;2294;51.818;8.484;2023-03-05T13:39:05;6.70;99.90
4564;DHT22;2294;51.818;8.484;2023-03-05T13:41:32;6.70;99.90
4564;DHT22;2294;51.818;8.484;2023-03-05T13:44:00;6.60;99.90
4564;DHT22;2294;51.818;8.484;2023-03-05T13:46:31;6.70;99.90
4564;DHT22;2294;51.818;8.484;2023-03-05T13:49:17;6.40;99.90
4564;DHT22;2294;51.818;8.484;2023-03-05T13:51:46;6.50;99.90
4564;DHT22;2294;51.818;8.484;2023-03-05T13:54:15;6.60;99.90
4564;DHT22;2294;51.818;8.484;2023-03-05T13:56:51;6.50;99.90
4564;DHT22;2294;51.818;8.484;2023-03-05T13:59:19;6.60;99.90
4564;DHT22;2294;51.818;8.484;2023-03-05T14:01:49;6.70;99.90
4564;DHT22;2294;51.818;8.484;2023-03-05T14:04:19;6.70;99.90
4564;DHT22;2294;51.818;8.484;2023-03-05T14:06:48;6.60;99.90
4564;DHT22;2294;51.818;8.484;2023-03-05T14:09:20;6.80;99.90
4564;DHT22;2294;51.818;8.484;2023-03-05T14:11:55;6.80;99.90
4564;DHT22;2294;51.818;8.484;2023-03-05T14:14:24;7.20;99.90
4564;DHT22;2294;51.818;8.484;2023-03-05T14:16:53;7.10;99.90
4564;DHT22;2294;51.818;8.484;2023-03-05T14:19:34;7.00;99.90
4564;DHT22;2294;51.818;8.484;2023-03-05T14:22:02;6.90;99.90
4564;DHT22;2294;51.818;8.484;2023-03-05T14:24:30;7.00;99.90
4564;DHT22;2294;51.818;8.484;2023-03-05T14:27:00;7.40;99.90
4564;DHT22;2294;51.818;8.484;2023-03-05T14:29:30;7.10;99.90
4564;DHT22;2294;51.818;8.484;2023-03-05T14:32:03;7.80;99.90
4564;DHT22;2294;51.818;8.484;2023-03-05T14:34:32;7.50;99.90
4564;DHT22;2294;51.818;8.484;2023-03-05T14:37:02;7.80;99.90
4564;DHT22;2294;51.818;8.484;2023-03-05T14:39:41;7.90;99.90
4564;DHT22;2294;51.818;8.484;2023-03-05T14:42:28;7.60;99.90
4564;DHT22;2294;51.818;8.484;2023-03-05T14:44:58;7.90;99.90
4564;DHT22;2294;51.818;8.484;2023-03-05T14:47:26;7.60;99.90
4564;DHT22;2294;51.818;8.484;2023-03-05T14:49:54;7.30;99.90
4564;DHT22;2294;51.818;8.484;2023-03-05T14:52:22;7.80;99.90
4564;DHT22;2294;51.818;8.484;2023-03-05T14:54:50;7.80;99.90
4564;DHT22;2294;51.818;8.484;2023-03-05T14:57:20;7.80;99.90
4564;DHT22;2294;51.818;8.484;2023-03-05T14:59:47;7.80;99.90
4564;DHT22;2294;51.818;8.484;2023-03-05T15:02:16;7.80;99.90
4564;DHT22;2294;51.818;8.484;2023-03-05T15:04:45;8.00;99.90
4564;DHT22;2294;51.818;8.484;2023-03-05T15:07:16;7.70;99.90
4564;DHT22;2294;51.818;8.484;2023-03-05T15:09:43;7.40;99.90
4564;DHT22;2294;51.818;8.484;2023-03-05T15:12:11;8.00;99.90
4564;DHT22;2294;51.818;8.484;2023-03-05T15:14:38;8.40;99.90
4564;DHT22;2294;51.818;8.484;2023-03-05T15:17:14;8.40;99.90
4564;DHT22;2294;51.818;8.484;2023-03-05T15:19:43;7.80;99.90
4564;DHT22;2294;51.818;8.484;2023-03-05T15:22:11;7.50;99.90
4564;DHT22;2294;51.818;8.484;2023-03-05T15:24:38;7.00;99.90
4564;DHT22;2294;51.818;8.484;2023-03-05T15:27:05;6.90;99.90
4564;DHT22;2294;51.818;8.484;2023-03-05T15:29:33;7.00;99.90
4564;DHT22;2294;51.818;8.484;2023-03-05T15:32:00;6.80;99.90
4564;DHT22;2294;51.818;8.484;2023-03-05T15:34:28;6.90;99.90
4564;DHT22;2294;51.818;8.484;2023-03-05T15:36:57;6.80;99.90
4564;DHT22;2294;51.818;8.484;2023-03-05T15:39:24;6.80;99.90
4564;DHT22;2294;51.818;8.484;2023-03-05T15:41:51;6.70;99.90
4564;DHT22;2294;51.818;8.484;2023-03-05T15:44:19;6.60;99.90
4564;DHT22;2294;51.818;8.484;2023-03-05T15:46:46;6.40;99.90
4564;DHT22;2294;51.818;8.484;2023-03-05T15:49:13;6.50;99.90
4564;DHT22;2294;51.818;8.484;2023-03-05T15:51:43;6.60;99.90
4564;DHT22;2294;51.818;8.484;2023-03-05T15:54:12;6.60;99.90
4564;DHT22;2294;51.818;8.484;2023-03-05T15:56:39;6.50;99.90
4564;DHT22;2294;51.818;8.484;2023-03-05T15:59:06;6.50;99.90
4564;DHT22;2294;51.818;8.484;2023-03-05T16:01:35;6.60;99.90
4564;DHT22;2294;51.818;8.484;2023-03-05T16:04:04;6.60;99.90
4564;DHT22;2294;51.818;8.484;2023-03-05T16:06:31;6.60;99.90
4564;DHT22;2294;51.818;8.484;2023-03-05T16:09:01;6.60;99.90
4564;DHT22;2294;51.818;8.484;2023-03-05T16:11:33;6.70;99.90
4564;DHT22;2294;51.818;8.484;2023-03-05T16:14:04;6.60;99.90
4564;DHT22;2294;51.818;8.484;2023-03-05T16:16:33;6.60;99.90
4564;DHT22;2294;51.818;8.484;2023-03-05T16:19:05;6.60;99.90
4564;DHT22;2294;51.818;8.484;2023-03-05T16:21:34;6.50;99.90
4564;DHT22;2294;51.818;8.484;2023-03-05T16:24:01;6.50;99.90
4564;DHT22;2294;51.818;8.484;2023-03-05T16:26:30;6.40;99.90
4564;DHT22;2294;51.818;8.484;2023-03-05T16:29:00;6.40;99.90
4564;DHT22;2294;51.818;8.484;2023-03-05T16:31:30;6.40;99.90
4564;DHT22;2294;51.818;8.484;2023-03-05T16:33:59;6.50;99.90
4564;DHT22;2294;51.818;8.484;2023-03-05T16:36:30;6.30;99.90
4564;DHT22;2294;51.818;8.484;2023-03-05T16:39:02;6.30;99.90
4564;DHT22;2294;51.818;8.484;2023-03-05T16:41:31;6.20;99.90
4564;DHT22;2294;51.818;8.484;2023-03-05T16:43:58;6.20;99.90